createdAt,value
2022-08-09T00:01:55.326Z,101077.66
2022-08-09T00:06:19.300Z,101079.41
2022-08-09T00:10:24.384Z,101086.38
2022-08-09T00:14:37.827Z,101074.25
2022-08-09T00:18:40.187Z,101072.53
2022-08-09T00:22:44.871Z,101084.66
2022-08-09T00:26:48.962Z,101075.97
2022-08-09T00:30:51.986Z,101077.72
2022-08-09T00:34:53.654Z,101075.94
2022-08-09T00:38:55.478Z,101072.47
2022-08-09T00:44:10.493Z,101077.69
2022-08-09T00:47:18.589Z,101071.56
2022-08-09T00:51:21.625Z,101075.03
2022-08-09T00:56:03.766Z,101074.09
2022-08-09T00:59:52.305Z,101082.72
2022-08-09T01:04:02.419Z,101082.69
2022-08-09T01:08:36.923Z,101079.16
2022-08-09T01:13:16.877Z,101084.41
2022-08-09T01:17:24.086Z,101084.44
2022-08-09T01:22:12.377Z,101093.13
2022-08-09T01:26:55.746Z,101084.38
2022-08-09T01:31:00.945Z,101090.34
2022-08-09T01:35:28.471Z,101091.22
2022-08-09T01:39:39.317Z,101096.41
2022-08-09T01:43:50.471Z,101096.34
2022-08-09T01:47:55.708Z,101097.19
2022-08-09T01:52:07.480Z,101088.47
2022-08-09T01:56:11.214Z,101093.66
2022-08-09T02:00:19.450Z,101099.66
2022-08-09T02:04:45.375Z,101104.00
2022-08-09T02:08:58.089Z,101104.84
2022-08-09T02:13:05.190Z,101106.50
2022-08-09T02:17:15.346Z,101104.75
2022-08-09T02:21:39.560Z,101109.06
2022-08-09T02:25:49.505Z,101118.69
2022-08-09T02:29:57.252Z,101112.50
2022-08-09T02:34:25.747Z,101114.13
2022-08-09T02:38:50.031Z,101114.94
2022-08-09T02:42:55.400Z,101123.47
2022-08-09T02:47:05.529Z,101124.22
2022-08-09T02:51:11.267Z,101122.41
2022-08-09T02:55:20.599Z,101126.63
2022-08-09T02:59:26.596Z,101123.97
2022-08-09T03:04:12.592Z,101125.69
2022-08-09T03:08:03.222Z,101127.44
2022-08-09T03:12:11.058Z,101129.19
2022-08-09T03:16:19.133Z,101123.09
2022-08-09T03:20:22.005Z,101125.72
2022-08-09T03:24:31.500Z,101123.09
2022-08-09T03:28:49.493Z,101124.06
2022-08-09T03:32:58.446Z,101122.41
2022-08-09T03:37:10.550Z,101123.31
2022-08-09T03:41:21.772Z,101125.03
2022-08-09T03:46:05.126Z,101132.06
2022-08-09T03:49:58.372Z,101136.47
2022-08-09T03:54:00.875Z,101134.78
2022-08-09T03:58:09.969Z,101125.28
2022-08-09T04:02:19.975Z,101138.25
2022-08-09T04:06:28.614Z,101142.63
2022-08-09T04:10:31.368Z,101148.66
2022-08-09T04:14:54.086Z,101154.69
2022-08-09T04:18:54.818Z,101153.88
2022-08-09T04:22:56.476Z,101164.25
2022-08-09T04:27:00.784Z,101167.69
2022-08-09T04:31:08.000Z,101178.09
2022-08-09T04:35:13.187Z,101182.34
2022-08-09T04:39:17.070Z,101171.91
2022-08-09T04:43:19.249Z,101188.31
2022-08-09T04:47:20.832Z,101185.72
2022-08-09T04:51:22.674Z,101184.94
2022-08-09T04:55:24.537Z,101189.19
2022-08-09T04:59:26.332Z,101183.97
2022-08-09T05:03:42.806Z,101192.63
2022-08-09T05:07:46.511Z,101207.34
2022-08-09T05:11:48.419Z,101207.34
2022-08-09T05:15:56.386Z,101207.34
2022-08-09T05:19:58.590Z,101217.91
2022-08-09T05:24:02.154Z,101226.69
2022-08-09T05:28:05.845Z,101238.88
2022-08-09T05:32:08.344Z,101237.25
2022-08-09T05:36:11.963Z,101245.06
2022-08-09T05:40:18.603Z,101242.44
2022-08-09T05:44:22.200Z,101243.34
2022-08-09T05:48:33.011Z,101246.81
2022-08-09T05:52:36.190Z,101245.22
2022-08-09T05:56:55.263Z,101240.03
2022-08-09T06:00:58.717Z,101230.47
2022-08-09T06:05:00.449Z,101239.06
2022-08-09T06:09:02.521Z,101250.28
2022-08-09T06:13:18.641Z,101244.19
2022-08-09T06:17:22.984Z,101249.44
2022-08-09T06:21:24.552Z,101258.22
2022-08-09T06:25:26.281Z,101255.72
2022-08-09T06:29:28.060Z,101261.78
2022-08-09T06:33:41.120Z,101271.44
2022-08-09T06:37:52.778Z,101269.69
2022-08-09T06:42:08.143Z,101277.63
2022-08-09T06:46:13.180Z,101269.13
2022-08-09T06:50:34.586Z,101279.69
2022-08-09T06:54:37.134Z,101276.31
2022-08-09T07:00:51.713Z,101276.34
2022-08-09T07:03:06.045Z,101279.06
2022-08-09T07:07:11.958Z,101280.03
2022-08-09T07:11:17.630Z,101283.59
2022-08-09T07:16:39.460Z,101287.09
2022-08-09T07:19:48.064Z,101281.06
2022-08-09T07:23:56.634Z,101285.44
2022-08-09T07:28:00.074Z,101291.59
2022-08-09T07:32:07.280Z,101284.63
2022-08-09T07:36:09.430Z,101285.56
2022-08-09T07:40:18.833Z,101289.97
2022-08-09T07:44:32.856Z,101290.84
2022-08-09T07:48:43.629Z,101290.88
2022-08-09T07:52:46.020Z,101283.94
2022-08-09T07:56:50.132Z,101279.63
2022-08-09T08:00:58.885Z,101279.63
2022-08-09T08:05:18.001Z,101286.59
2022-08-09T08:09:39.738Z,101284.81
2022-08-09T08:13:45.162Z,101293.53
2022-08-09T08:17:58.836Z,101286.53
2022-08-09T08:22:00.532Z,101292.59
2022-08-09T08:26:06.498Z,101285.59
2022-08-09T08:30:11.619Z,101294.25
2022-08-09T08:34:13.975Z,101287.22
2022-08-09T08:38:15.786Z,101282.81
2022-08-09T08:42:17.463Z,101280.97
2022-08-09T08:46:33.564Z,101284.44
2022-08-09T08:50:37.559Z,101282.59
2022-08-09T08:54:40.281Z,101286.00
2022-08-09T08:58:44.436Z,101278.94
2022-08-09T09:02:52.593Z,101284.13
2022-08-09T09:07:00.731Z,101280.63
2022-08-09T09:11:04.437Z,101280.47
2022-08-09T09:15:07.684Z,101284.72
2022-08-09T09:19:37.766Z,101283.72
2022-08-09T09:23:49.583Z,101279.19
2022-08-09T09:28:03.827Z,101273.81
2022-08-09T09:32:15.698Z,101274.63
2022-08-09T09:36:20.457Z,101266.63
2022-08-09T09:40:41.059Z,101268.16
2022-08-09T09:45:07.000Z,101258.44
2022-08-09T09:49:18.671Z,101258.34
2022-08-09T09:53:43.893Z,101256.44
2022-08-09T09:58:02.902Z,101251.94
2022-08-09T10:02:15.358Z,101239.50
2022-08-09T10:06:17.993Z,101231.41
2022-08-09T10:10:29.968Z,101242.50
2022-08-09T10:14:33.949Z,101225.63
2022-08-09T10:18:35.879Z,101221.03
2022-08-09T10:22:39.151Z,101212.78
2022-08-09T10:26:41.686Z,101211.56
2022-08-09T10:32:21.011Z,101203.31
2022-08-09T10:35:10.401Z,101198.63
2022-08-09T10:39:19.454Z,101200.09
2022-08-09T10:43:21.541Z,101191.81
2022-08-09T10:48:16.615Z,101186.34
2022-08-09T10:52:20.552Z,101185.19
2022-08-09T10:56:40.934Z,101188.41
2022-08-09T11:03:01.765Z,101182.81
2022-08-09T11:05:25.499Z,101179.91
2022-08-09T11:09:37.953Z,101176.31
2022-08-09T11:13:50.001Z,101177.16
2022-08-09T11:18:02.687Z,101179.41
2022-08-09T11:22:18.663Z,101178.22
2022-08-09T11:26:38.938Z,101184.06
2022-08-09T11:30:47.966Z,101181.13
2022-08-09T11:34:52.151Z,101181.69
2022-08-09T11:39:01.717Z,101173.72
2022-08-09T11:43:03.497Z,101171.75
2022-08-09T11:47:05.283Z,101167.00
2022-08-09T11:52:49.239Z,101160.41
2022-08-09T11:55:51.979Z,101153.13
2022-08-09T11:59:55.756Z,101152.09
2022-08-09T12:04:23.855Z,101159.72
2022-08-09T12:08:31.071Z,101141.97
2022-08-09T12:12:49.047Z,101146.28
2022-08-09T12:16:56.392Z,101136.25
2022-08-09T12:21:02.696Z,101144.69
2022-08-09T12:25:15.897Z,101135.75
2022-08-09T12:29:33.915Z,101140.69
2022-08-09T12:33:59.424Z,101133.16
2022-08-09T12:38:29.454Z,101139.66
2022-08-09T12:42:44.422Z,101130.47
2022-08-09T12:46:50.069Z,101111.59
2022-08-09T12:50:52.610Z,101126.97
2022-08-09T12:56:10.745Z,101118.34
2022-08-09T12:59:23.512Z,101103.41
2022-08-09T13:03:52.779Z,101104.50
2022-08-09T13:08:21.242Z,101107.09
2022-08-09T13:13:09.438Z,101106.97
2022-08-09T13:17:21.808Z,101101.16
2022-08-09T13:22:45.539Z,101098.53
2022-08-09T13:26:00.290Z,101093.34
2022-08-09T13:30:48.937Z,101092.09
2022-08-09T13:34:40.864Z,101076.22
2022-08-09T13:38:57.752Z,101078.44
2022-08-09T13:43:04.003Z,101082.44
2022-08-09T13:47:29.131Z,101080.09
2022-08-09T13:51:34.369Z,101072.03
2022-08-09T13:55:36.935Z,101066.69
2022-08-09T13:59:42.181Z,101067.19
2022-08-09T14:04:04.879Z,101068.94
2022-08-09T14:08:06.454Z,101063.72
2022-08-09T14:12:08.794Z,101058.69
2022-08-09T14:16:20.282Z,101052.31
2022-08-09T14:20:30.541Z,101066.00
2022-08-09T14:24:33.864Z,101061.38
2022-08-09T14:28:35.613Z,101050.59
2022-08-09T14:32:37.776Z,101042.94
2022-08-09T14:36:42.794Z,101046.41
2022-08-09T14:41:02.309Z,101044.66
2022-08-09T14:46:58.131Z,101033.88
2022-08-09T14:49:34.542Z,101036.47
2022-08-09T14:53:46.779Z,101040.41
2022-08-09T14:57:50.181Z,101029.44
2022-08-09T15:01:51.772Z,101022.47
2022-08-09T15:05:55.625Z,101019.06
2022-08-09T15:10:07.268Z,101011.44
2022-08-09T15:14:13.654Z,101024.03
2022-08-09T15:18:15.386Z,101016.66
2022-08-09T15:22:17.840Z,101015.88
2022-08-09T15:26:31.428Z,101012.72
2022-08-09T15:30:57.390Z,101017.81
2022-08-09T15:34:56.301Z,101000.97
2022-08-09T15:39:00.186Z,101009.94
2022-08-09T15:43:02.079Z,101004.84
2022-08-09T15:47:05.278Z,101006.31
2022-08-09T15:51:11.597Z,101011.34
2022-08-09T15:55:29.980Z,101007.88
2022-08-09T15:59:37.502Z,101003.16
2022-08-09T16:03:41.643Z,101011.16
2022-08-09T16:07:45.816Z,101005.44
2022-08-09T16:11:57.333Z,101003.09
2022-08-09T16:16:09.957Z,101009.94
2022-08-09T16:20:14.851Z,101010.03
2022-08-09T16:24:33.732Z,101003.41
2022-08-09T16:28:35.850Z,101001.16
2022-08-09T16:32:56.934Z,100993.00
2022-08-09T16:36:59.891Z,100999.19
2022-08-09T16:41:03.890Z,101000.88
2022-08-09T16:45:06.967Z,101000.78
2022-08-09T16:49:16.832Z,100998.53
2022-08-09T16:53:34.233Z,100999.53
2022-08-09T16:58:08.718Z,100989.16
2022-08-09T17:01:58.057Z,101004.47
2022-08-09T17:06:08.144Z,101002.91
2022-08-09T17:10:21.952Z,100999.69
2022-08-09T17:14:28.090Z,101007.84
2022-08-09T17:18:30.263Z,101011.31
2022-08-09T17:22:32.791Z,101015.50
2022-08-09T17:26:38.427Z,101011.22
2022-08-09T17:30:40.333Z,101013.50
2022-08-09T17:35:02.009Z,101010.25
2022-08-09T17:39:11.142Z,101014.41
2022-08-09T17:43:33.699Z,101022.59
2022-08-09T17:47:49.351Z,101035.28
2022-08-09T17:51:52.325Z,101032.06
2022-08-09T17:56:00.015Z,101033.34
2022-08-09T18:00:07.451Z,101037.00
2022-08-09T18:04:13.637Z,101032.53
2022-08-09T18:08:16.208Z,101044.72
2022-08-09T18:12:20.217Z,101051.50
2022-08-09T18:16:29.173Z,101044.13
2022-08-09T18:20:56.592Z,101052.50
2022-08-09T18:24:52.955Z,101050.31
2022-08-09T18:30:42.422Z,101056.97
2022-08-09T18:33:16.089Z,101054.72
2022-08-09T18:37:46.894Z,101057.69
2022-08-09T18:41:53.130Z,101065.91
2022-08-09T18:46:50.533Z,101068.94
2022-08-09T18:50:16.914Z,101071.03
2022-08-09T18:54:28.474Z,101086.38
2022-08-09T18:58:32.086Z,101080.59
2022-08-09T19:02:34.938Z,101086.19
2022-08-09T19:06:38.693Z,101085.53
2022-08-09T19:10:40.464Z,101096.34
2022-08-09T19:14:43.449Z,101093.97
2022-08-09T19:18:45.774Z,101094.22
2022-08-09T19:22:54.196Z,101106.72
2022-08-09T19:26:56.114Z,101101.63
2022-08-09T19:30:57.687Z,101104.44
2022-08-09T19:34:59.314Z,101113.44
2022-08-09T19:39:01.099Z,101109.25
2022-08-09T19:43:10.253Z,101108.56
2022-08-09T19:47:23.239Z,101107.00
2022-08-09T19:51:25.937Z,101112.34
2022-08-09T19:56:02.746Z,101109.03
2022-08-09T19:59:59.961Z,101109.16
2022-08-09T20:04:22.258Z,101113.72
2022-08-09T20:08:35.509Z,101104.22
2022-08-09T20:12:39.799Z,101121.00
2022-08-09T20:16:49.964Z,101118.53
2022-08-09T20:20:56.972Z,101121.28
2022-08-09T20:24:58.565Z,101114.41
2022-08-09T20:29:10.329Z,101121.53
2022-08-09T20:33:20.719Z,101110.25
2022-08-09T20:37:22.945Z,101110.38
2022-08-09T20:41:34.712Z,101115.78
2022-08-09T20:46:00.110Z,101121.22
2022-08-09T20:50:01.108Z,101117.81
2022-08-09T20:54:03.605Z,101134.66
2022-08-09T20:58:19.698Z,101138.31
2022-08-09T21:02:21.687Z,101128.78
2022-08-09T21:06:24.964Z,101134.22
2022-08-09T21:10:30.886Z,101131.66
2022-08-09T21:14:40.529Z,101130.00
2022-08-09T21:20:05.046Z,101138.78
2022-08-09T21:23:08.891Z,101133.66
2022-08-09T21:27:51.711Z,101136.38
2022-08-09T21:31:49.437Z,101138.28
2022-08-09T21:35:52.547Z,101135.78
2022-08-09T21:39:54.509Z,101144.63
2022-08-09T21:43:58.168Z,101135.09
2022-08-09T21:48:00.365Z,101139.56
2022-08-09T21:52:01.881Z,101145.84
2022-08-09T21:56:03.689Z,101135.56
2022-08-09T22:00:12.941Z,101145.34
2022-08-09T22:04:14.507Z,101153.31
2022-08-09T22:08:25.481Z,101151.69
2022-08-09T22:12:30.798Z,101154.41
2022-08-09T22:16:37.462Z,101155.31
2022-08-09T22:20:40.029Z,101160.53
2022-08-09T22:26:04.542Z,101151.00
2022-08-09T22:29:07.004Z,101154.53
2022-08-09T22:33:09.922Z,101154.53
2022-08-09T22:37:12.443Z,101156.28
2022-08-09T22:41:15.471Z,101155.41
2022-08-09T22:48:14.813Z,101148.50
2022-08-09T22:49:40.407Z,101150.28
2022-08-09T22:53:58.523Z,101150.38
2022-08-09T22:58:04.793Z,101163.50
2022-08-09T23:02:06.699Z,101161.84
2022-08-09T23:06:08.260Z,101164.50
2022-08-09T23:10:16.076Z,101163.66
2022-08-09T23:14:17.746Z,101160.19
2022-08-09T23:18:40.631Z,101158.47
2022-08-09T23:22:42.312Z,101157.66
2022-08-09T23:26:43.923Z,101159.41
2022-08-09T23:30:52.029Z,101150.72
2022-08-09T23:34:53.825Z,101148.13
2022-08-09T23:38:55.601Z,101150.72
2022-08-09T23:42:57.160Z,101149.00
2022-08-09T23:46:58.789Z,101151.59
2022-08-09T23:51:00.338Z,101148.09
2022-08-09T23:55:01.992Z,101162.06
2022-08-09T23:59:05.724Z,101153.28
